»·PEaware :: DAL935 KSFO-KSAN

DAL935 :: KSFO-KSAN

FLIGHT INFORMATION

Flight Status: Arrived
Operator:
Delta Air Lines
More flights by this operator :: More flights under this callsign
Pilot: Max W. (2591)
Aircraft: BOEING 737-800
(B738)
More flights by this aircraft type
Origin: KSFO San Francisco Intl
United States
Destination: KSAN San Diego Intl-Lindbergh
United States
More flights between these airports :: More routes between these airports
Route: +SSTIK3 CISKO FLW LAX COMIX2
File this flight plan on PilotEdge
Remarks:
Altitude:
(Current/Filed)
39,000ft
Speed:
(Current/Filed)
450kts
Departed: 11-Oct-18 03:55 PM
Arrived: 11-Oct-18 05:10 PM
Distance/Time
Traveled:
388nm/1:15
Distance/Time
To Go:
Arrived

Flight Plot

Page will automatically refresh every two minutes.

Flight plan parsing failed; only flown route is shown


Map Options




Map Legend


Flown Route
Filed Route
Departure Airport
Arrival Airport
Navaid (VOR, NDB)
Fix

Horizontal Profiles

Position Reports

Time Latitude Longitude Heading Altitude Ground
Speed
11-Oct-18 15:40 37.612830 -122.383166 296 20ft 0kts
11-Oct-18 15:41 37.612830 -122.383166 296 20ft 0kts
11-Oct-18 15:42 37.612830 -122.383166 296 20ft 0kts
11-Oct-18 15:43 37.612830 -122.383166 296 20ft 0kts
11-Oct-18 15:44 37.612830 -122.383166 296 20ft 0kts
11-Oct-18 15:45 37.612830 -122.383166 296 20ft 0kts
11-Oct-18 15:46 37.612761 -122.382992 296 20ft 2kts
11-Oct-18 15:47 37.612631 -122.382351 242 20ft 2kts
11-Oct-18 15:48 37.612807 -122.382156 206 20ft 0kts
11-Oct-18 15:49 37.612807 -122.382156 206 20ft 0kts
11-Oct-18 15:50 37.612806 -122.382156 206 20ft 0kts
11-Oct-18 15:51 37.610407 -122.383838 213 20ft 14kts
11-Oct-18 15:52 37.608526 -122.383976 120 20ft 0kts
11-Oct-18 15:53 37.608526 -122.383976 120 20ft 0kts
11-Oct-18 15:54 37.608526 -122.383976 120 20ft 0kts
11-Oct-18 15:55 37.608526 -122.383976 120 20ft 0kts
11-Oct-18 15:56 37.608518 -122.383960 121 20ft 1kts
11-Oct-18 15:57 37.619646 -122.374478 26 440ft 155kts
11-Oct-18 15:58 37.660570 -122.367393 351 3815ft 182kts
11-Oct-18 15:59 37.680166 -122.429492 228 7099ft 286kts
11-Oct-18 16:00 37.602571 -122.453582 186 11814ft 302kts
11-Oct-18 16:01 37.517647 -122.465830 172 15833ft 321kts
11-Oct-18 16:02 37.435432 -122.424973 131 19399ft 334kts
11-Oct-18 16:03 37.373417 -122.335098 132 22584ft 354kts
11-Oct-18 16:04 37.300944 -122.246870 134 25419ft 374kts
11-Oct-18 16:05 37.224953 -122.155572 134 28225ft 383kts
11-Oct-18 16:06 37.135656 -122.048667 135 31406ft 381kts
11-Oct-18 16:07 37.071332 -121.971855 136 32894ft 396kts
11-Oct-18 16:08 36.989544 -121.874433 137 34577ft 413kts
11-Oct-18 16:09 36.907534 -121.777129 138 36666ft 413kts
11-Oct-18 16:10 36.824499 -121.678991 138 38263ft 421kts
11-Oct-18 16:11 36.745595 -121.585975 138 38886ft 418kts
11-Oct-18 16:12 36.661492 -121.487139 138 38891ft 418kts
11-Oct-18 16:13 36.576732 -121.387857 138 38891ft 418kts
11-Oct-18 16:14 36.490734 -121.287458 138 38897ft 442kts
11-Oct-18 16:15 36.398153 -121.179679 138 38870ft 458kts
11-Oct-18 16:16 36.304432 -121.081156 143 38885ft 446kts
11-Oct-18 16:17 36.209154 -120.983684 144 38882ft 444kts
11-Oct-18 16:18 36.114489 -120.887094 144 38880ft 443kts
11-Oct-18 16:19 36.019689 -120.790664 144 38881ft 443kts
11-Oct-18 16:20 35.924759 -120.694398 144 38881ft 443kts
11-Oct-18 16:21 35.831830 -120.600455 144 38884ft 443kts
11-Oct-18 16:22 35.736558 -120.504451 144 38884ft 443kts
11-Oct-18 16:23 35.625461 -120.393282 144 38885ft 443kts
11-Oct-18 16:24 35.547851 -120.316445 145 38878ft 442kts
11-Oct-18 16:25 35.452417 -120.221911 145 38879ft 443kts
11-Oct-18 16:26 35.356804 -120.127135 145 38886ft 443kts
11-Oct-18 16:27 35.261287 -120.032390 144 38896ft 443kts
11-Oct-18 16:28 35.166172 -119.937986 144 38895ft 443kts
11-Oct-18 16:29 35.072363 -119.840794 137 38896ft 446kts
11-Oct-18 16:30 34.986837 -119.731887 138 38890ft 447kts
11-Oct-18 16:31 34.888472 -119.608291 140 38898ft 444kts
11-Oct-18 16:32 34.817431 -119.519405 140 38905ft 443kts
11-Oct-18 16:33 34.731719 -119.412510 140 38908ft 443kts
11-Oct-18 16:34 34.646488 -119.306520 141 38905ft 442kts
11-Oct-18 16:35 34.560670 -119.200110 141 38904ft 443kts
11-Oct-18 16:36 34.474645 -119.093779 141 38900ft 443kts
11-Oct-18 16:37 34.388649 -118.987787 141 38898ft 442kts
11-Oct-18 16:38 34.302963 -118.882462 142 38898ft 439kts
11-Oct-18 16:39 34.217707 -118.777984 143 38899ft 436kts
11-Oct-18 16:40 34.131856 -118.673356 143 38902ft 450kts
11-Oct-18 16:41 34.044574 -118.567104 143 37101ft 449kts
11-Oct-18 16:42 33.957656 -118.461590 143 34003ft 455kts
11-Oct-18 16:43 33.872727 -118.354019 140 30816ft 442kts
11-Oct-18 16:44 33.794024 -118.251832 139 28166ft 412kts
11-Oct-18 16:45 33.720957 -118.156033 139 26704ft 360kts
11-Oct-18 16:46 33.655417 -118.070070 138 24647ft 343kts
11-Oct-18 16:47 33.592303 -117.987526 137 22559ft 331kts
11-Oct-18 16:48 33.530887 -117.909403 140 20522ft 319kts
11-Oct-18 16:49 33.467698 -117.836864 138 18489ft 312kts
11-Oct-18 16:50 33.406704 -117.764523 135 16528ft 306kts
11-Oct-18 16:51 33.347945 -117.692855 135 15021ft 298kts
11-Oct-18 16:52 33.291717 -117.624451 135 15009ft 302kts
11-Oct-18 16:53 33.228622 -117.559346 145 13915ft 300kts
11-Oct-18 16:54 33.160598 -117.503138 144 12123ft 299kts
11-Oct-18 16:55 33.093164 -117.446792 145 11316ft 293kts
11-Oct-18 16:56 33.027409 -117.391847 146 9724ft 288kts
11-Oct-18 16:57 32.965026 -117.339523 146 8986ft 268kts
11-Oct-18 16:58 32.903891 -117.288408 147 8796ft 268kts
11-Oct-18 16:59 32.844657 -117.239190 147 7762ft 264kts
11-Oct-18 17:00 32.802823 -117.171743 104 7154ft 259kts
11-Oct-18 17:01 32.784989 -117.091380 106 5583ft 241kts
11-Oct-18 17:02 32.761900 -117.018652 117 4085ft 234kts
11-Oct-18 17:03 32.738578 -116.947499 106 2991ft 229kts
11-Oct-18 17:04 32.724734 -116.874417 104 4084ft 248kts
11-Oct-18 17:05 32.674717 -116.860073 247 3990ft 215kts
11-Oct-18 17:06 32.672504 -116.928083 271 3990ft 205kts
11-Oct-18 17:07 32.683950 -116.992800 295 3897ft 188kts
11-Oct-18 17:08 32.698966 -117.048249 286 2532ft 160kts
11-Oct-18 17:09 32.709552 -117.091300 286 1683ft 126kts
11-Oct-18 17:10 32.719179 -117.130648 286 955ft 122kts
11-Oct-18 17:11 32.728723 -117.169652 285 301ft 125kts
11-Oct-18 17:12 32.733936 -117.195626 280 21ft 0kts
11-Oct-18 17:13 32.733936 -117.195626 280 21ft 0kts
11-Oct-18 17:14 32.733960 -117.195775 282 21ft 11kts

Navigation Log

Ident Type
Flight plan parsing failed, navigation log unavailable